Time;durP1;ratioP1;P1;durP2;ratioP2;P2;SDS_P1;SDS_P2;PMS_P1;PMS_P2;Temp;Humidity;BMP_temperature;BMP_pressure;BME280_temperature;BME280_humidity;BME280_pressure;Samples;Min_cycle;Max_cycle;Signal;HPM_P1;HPM_P2
2022/05/23 00:00:23;;;;;;;8.98;4.60;;;;;;;10.68;71.24;100614.13;1649873;85;25895;-72
2022/05/23 00:02:50;;;;;;;4.47;3.40;;;;;;;10.69;71.25;100618.55;1646891;85;98876;-71
2022/05/23 00:05:18;;;;;;;5.78;3.90;;;;;;;10.70;71.25;100614.05;1651888;85;26011;-72
2022/05/23 00:07:48;;;;;;;7.97;4.50;;;;;;;10.69;71.27;100613.19;1649612;85;25795;-72
2022/05/23 00:10:21;;;;;;;10.50;4.20;;;;;;;10.69;71.24;100611.84;1640634;85;98736;-71
2022/05/23 00:12:51;;;;;;;7.42;3.98;;;;;;;10.68;71.21;100607.89;1650120;85;25781;-72
2022/05/23 00:15:18;;;;;;;13.80;5.23;;;;;;;10.64;71.24;100600.45;1644215;85;98808;-72
2022/05/23 00:17:44;;;;;;;7.05;3.90;;;;;;;10.68;71.19;100602.06;1647890;85;25735;-72
2022/05/23 00:20:14;;;;;;;9.73;5.35;;;;;;;10.66;71.18;100607.96;1646915;85;25800;-71
2022/05/23 00:22:42;;;;;;;12.98;5.85;;;;;;;10.66;71.16;100607.09;1646393;85;98524;-71
2022/05/23 00:25:10;;;;;;;7.08;4.15;;;;;;;10.65;71.13;100606.22;1617231;87;25854;-73
2022/05/23 00:27:40;;;;;;;7.55;3.98;;;;;;;10.64;71.12;100603.61;1614057;87;98712;-73
2022/05/23 00:30:18;;;;;;;5.20;3.62;;;;;;;10.59;71.09;100605.14;1618160;87;25833;-73
2022/05/23 00:35:32;;;;;;;6.97;4.05;;;;;;;10.49;71.14;100607.83;1614802;87;27884;-72
2022/05/23 00:37:58;;;;;;;7.83;4.12;;;;;;;10.46;71.19;100611.98;1615427;87;25793;-72
2022/05/23 00:43:13;;;;;;;6.87;4.50;;;;;;;10.44;71.14;100608.97;1644393;85;98699;-72
2022/05/23 00:43:27;;;;;;;7.70;4.00;;;;;;;10.40;71.17;100609.09;1646036;85;25822;-73
2022/05/23 00:46:04;;;;;;;7.03;4.47;;;;;;;10.37;71.25;100601.70;1647497;85;98846;-72
2022/05/23 00:48:32;;;;;;;7.53;4.35;;;;;;;10.36;71.30;100607.98;1652024;85;26304;-73
2022/05/23 00:51:04;;;;;;;6.97;4.55;;;;;;;10.33;71.36;100605.44;1645465;85;98899;-71
2022/05/23 00:53:41;;;;;;;9.38;4.28;;;;;;;10.31;71.33;100604.64;1648311;85;27381;-72
2022/05/23 00:56:11;;;;;;;11.80;5.45;;;;;;;10.25;71.36;100608.45;1649740;85;26383;-72
2022/05/23 00:58:41;;;;;;;8.68;4.60;;;;;;;10.19;71.39;100605.12;1637215;85;98760;-71
2022/05/23 01:01:11;;;;;;;8.20;4.58;;;;;;;10.15;71.41;100604.38;1635361;86;26264;-72
2022/05/23 01:03:41;;;;;;;9.53;4.77;;;;;;;10.12;71.51;100603.64;1636558;86;98775;-72
2022/05/23 01:06:07;;;;;;;11.88;4.45;;;;;;;10.12;71.55;100610.34;1639029;86;27484;-71
2022/05/23 01:08:36;;;;;;;13.30;4.95;;;;;;;10.07;71.53;100615.42;1637370;86;99064;-72
2022/05/23 01:11:03;;;;;;;7.37;4.22;;;;;;;10.05;71.48;100613.73;1636337;86;27002;-71
2022/05/23 01:13:30;;;;;;;6.62;4.62;;;;;;;10.02;71.53;100611.19;1632889;86;26171;-72
2022/05/23 01:15:56;;;;;;;9.65;4.30;;;;;;;9.98;71.51;100613.13;1632379;86;98767;-72
2022/05/23 01:18:24;;;;;;;8.83;4.12;;;;;;;9.95;71.55;100615.92;1637157;86;29341;-71
2022/05/23 01:20:57;;;;;;;5.70;3.70;;;;;;;9.94;71.61;100614.65;1637816;86;98836;-72
2022/05/23 01:23:45;;;;;;;7.08;3.98;;;;;;;9.93;71.57;100619.13;1578829;88;25850;-71
2022/05/23 01:26:11;;;;;;;5.37;3.55;;;;;;;9.89;71.57;100620.66;1634643;86;25845;-71
2022/05/23 01:28:43;;;;;;;8.45;4.83;;;;;;;9.86;71.59;100618.11;1636496;86;98493;-71
2022/05/23 01:31:13;;;;;;;6.95;4.40;;;;;;;9.86;71.62;100615.43;1634509;86;28322;-73
2022/05/23 01:33:43;;;;;;;7.60;4.80;;;;;;;9.83;71.61;100621.78;1637077;86;98618;-70
2022/05/23 01:36:15;;;;;;;10.65;4.70;;;;;;;9.80;71.65;100616.55;1636573;86;25798;-71
2022/05/23 01:38:44;;;;;;;7.20;4.42;;;;;;;9.77;71.67;100611.32;1631339;86;98874;-70
2022/05/23 01:41:11;;;;;;;10.98;4.83;;;;;;;9.76;71.66;100605.56;1637929;86;26404;-71
2022/05/23 01:43:37;;;;;;;6.17;4.45;;;;;;;9.74;71.64;100603.42;1634831;86;27480;-70
2022/05/23 01:46:05;;;;;;;6.17;4.28;;;;;;;9.69;71.61;100602.73;1634222;86;98618;-70
2022/05/23 01:48:33;;;;;;;12.10;4.28;;;;;;;9.67;71.73;100601.92;1632441;86;25802;-73
2022/05/23 01:50:59;;;;;;;7.85;4.33;;;;;;;9.66;71.66;100602.85;1610622;87;98963;-71
2022/05/23 01:53:26;;;;;;;9.35;4.35;;;;;;;9.62;71.66;100597.22;1613409;87;25342;-72
2022/05/23 01:55:54;;;;;;;7.05;4.47;;;;;;;9.60;71.68;100594.60;1635039;86;27506;-72
2022/05/23 02:01:14;;;;;;;9.45;4.37;;;;;;;9.57;71.68;100580.48;1639312;86;25890;-71
2022/05/23 02:03:47;;;;;;;7.72;4.97;;;;;;;9.53;71.70;100573.04;1629699;86;98557;-71
2022/05/23 02:06:13;;;;;;;12.93;4.50;;;;;;;9.51;71.68;100570.02;1631191;86;25723;-71
2022/05/23 02:08:41;;;;;;;7.15;4.08;;;;;;;9.46;71.66;100564.85;1634767;86;98964;-72
2022/05/23 02:11:09;;;;;;;7.40;4.92;;;;;;;9.42;71.65;100566.78;1636846;86;26171;-72
2022/05/23 02:13:39;;;;;;;9.63;5.22;;;;;;;9.40;71.71;100559.75;1636362;86;26365;-74
2022/05/23 02:16:07;;;;;;;9.33;4.77;;;;;;;9.37;71.67;100559.41;1634087;86;98591;-71
2022/05/23 02:18:33;;;;;;;7.22;4.80;;;;;;;9.34;71.72;100559.52;1633707;86;25792;-71
2022/05/23 02:21:02;;;;;;;10.13;5.25;;;;;;;9.32;71.70;100555.17;1633930;86;98678;-71
2022/05/23 02:23:28;;;;;;;10.08;5.17;;;;;;;9.29;71.70;100553.95;1641460;86;25853;-71
2022/05/23 02:25:55;;;;;;;8.65;5.00;;;;;;;9.26;71.78;100554.94;1636711;86;25876;-72
2022/05/23 02:28:21;;;;;;;8.70;4.42;;;;;;;9.25;71.72;100559.89;1630951;87;98747;-71
2022/05/23 02:30:50;;;;;;;7.12;4.10;;;;;;;9.21;71.69;100558.27;1635864;86;25730;-72
2022/05/23 02:33:18;;;;;;;9.15;5.33;;;;;;;9.16;71.73;100564.25;1633396;85;98665;-71
2022/05/23 02:35:45;;;;;;;10.60;5.15;;;;;;;9.11;71.77;100561.76;1637852;86;26306;-71
2022/05/23 02:38:13;;;;;;;11.53;5.17;;;;;;;9.09;71.79;100564.09;1634238;86;25934;-71
2022/05/23 02:40:39;;;;;;;11.33;5.40;;;;;;;9.08;71.85;100561.88;1633901;86;98463;-71
2022/05/23 02:43:04;;;;;;;9.85;5.33;;;;;;;9.08;71.90;100560.54;1635567;86;25760;-72
2022/05/23 02:45:30;;;;;;;9.50;5.50;;;;;;;9.07;71.92;100554.79;1637330;86;98718;-71
2022/05/23 02:47:58;;;;;;;9.28;5.22;;;;;;;9.03;71.87;100555.84;1640368;86;27239;-71
2022/05/23 02:50:25;;;;;;;10.43;5.53;;;;;;;9.02;71.93;100561.24;1634243;86;98749;-71
2022/05/23 02:52:50;;;;;;;9.55;5.65;;;;;;;9.00;71.97;100552.41;1629745;86;26188;-71
2022/05/23 02:55:17;;;;;;;11.25;5.35;;;;;;;8.98;71.96;100548.92;1638571;86;25862;-71
2022/05/23 02:57:43;;;;;;;10.08;5.60;;;;;;;8.96;72.05;100549.45;1635216;86;98781;-71
2022/05/23 03:00:11;;;;;;;9.55;6.05;;;;;;;8.96;72.09;100547.64;1635751;86;25739;-71
2022/05/23 03:05:22;;;;;;;12.25;7.47;;;;;;;8.97;72.16;100550.72;1632176;86;25795;-71
2022/05/23 03:07:48;;;;;;;11.90;7.42;;;;;;;8.99;72.18;100557.34;1636868;86;25762;-71
2022/05/23 03:10:15;;;;;;;14.05;7.62;;;;;;;8.98;72.22;100556.48;1635343;86;98807;-71
2022/05/23 03:12:42;;;;;;;12.73;7.42;;;;;;;8.98;72.23;100557.81;1637418;86;26453;-71
2022/05/23 03:15:10;;;;;;;15.05;8.00;;;;;;;9.00;72.28;100559.09;1634981;86;98860;-71
2022/05/23 03:17:36;;;;;;;14.47;7.50;;;;;;;8.98;72.26;100549.80;1641941;86;26345;-71
2022/05/23 03:20:03;;;;;;;15.70;8.10;;;;;;;8.99;72.32;100549.33;1636043;86;25812;-72
2022/05/23 03:28:04;;;;;;;12.75;6.70;;;;;;;8.99;72.35;100553.34;1635095;86;99288;-72
2022/05/23 03:30:31;;;;;;;10.20;6.37;;;;;;;9.01;72.45;100560.37;1635951;86;25799;-72
2022/05/23 03:32:58;;;;;;;11.73;6.00;;;;;;;9.01;72.43;100561.70;1635355;86;98996;-72
2022/05/23 03:35:29;;;;;;;11.00;5.87;;;;;;;9.04;72.45;100563.39;1636149;86;28518;-72
2022/05/23 03:37:56;;;;;;;13.05;6.15;;;;;;;9.08;72.51;100573.04;1636131;86;26000;-72
2022/05/23 03:40:22;;;;;;;11.57;6.65;;;;;;;9.10;72.59;100581.41;1634350;86;98826;-72
2022/05/23 03:42:49;;;;;;;9.88;5.90;;;;;;;9.15;72.60;100581.70;1635639;86;27872;-72
2022/05/23 03:45:17;;;;;;;11.28;5.72;;;;;;;9.16;72.56;100587.45;1637338;86;98553;-72
2022/05/23 03:47:44;;;;;;;11.45;5.60;;;;;;;9.18;72.58;100593.15;1635452;86;27544;-72
2022/05/23 03:50:10;;;;;;;13.98;6.28;;;;;;;9.21;72.60;100589.02;1635252;86;26349;-72
2022/05/23 03:52:38;;;;;;;12.95;5.70;;;;;;;9.23;72.60;100593.84;1636410;86;98646;-72
2022/05/23 03:55:05;;;;;;;8.78;5.53;;;;;;;9.27;72.68;100587.91;1634645;86;25768;-72
2022/05/23 03:57:30;;;;;;;10.85;6.00;;;;;;;9.30;72.65;100595.34;1633919;86;98563;-71
2022/05/23 03:59:59;;;;;;;12.25;6.08;;;;;;;9.32;72.66;100586.80;1653101;85;27539;-71
2022/05/23 04:02:27;;;;;;;9.33;5.62;;;;;;;9.37;72.71;100591.97;1650543;85;98911;-71
2022/05/23 04:04:53;;;;;;;12.13;5.97;;;;;;;9.40;72.74;100595.86;1650873;85;25798;-71
2022/05/23 04:07:20;;;;;;;9.13;5.40;;;;;;;9.42;72.71;100600.22;1618868;87;25958;-71
2022/05/23 04:09:49;;;;;;;12.88;5.62;;;;;;;9.47;72.76;100607.19;1619015;87;97726;-71
2022/05/23 04:12:15;;;;;;;17.45;5.95;;;;;;;9.49;72.73;100614.69;1645609;85;27490;-71
2022/05/23 04:14:43;;;;;;;12.35;6.33;;;;;;;9.50;72.72;100609.28;1648352;84;98979;-71
2022/05/23 04:17:10;;;;;;;12.07;6.47;;;;;;;9.52;72.75;100606.08;1648885;85;25837;-72
2022/05/23 04:19:38;;;;;;;11.80;6.70;;;;;;;9.54;72.80;100600.20;1650226;85;26435;-72
2022/05/23 04:22:05;;;;;;;13.08;7.00;;;;;;;9.57;72.83;100604.56;1648197;85;98796;-72
2022/05/23 04:24:33;;;;;;;13.58;6.40;;;;;;;9.59;72.81;100596.87;1649255;85;28394;-71
2022/05/23 04:26:59;;;;;;;20.57;7.03;;;;;;;9.62;72.79;100601.23;1645062;85;99196;-72
2022/05/23 04:29:29;;;;;;;14.63;6.95;;;;;;;9.64;72.81;100600.23;1649346;85;25801;-71
2022/05/23 04:31:55;;;;;;;13.50;7.42;;;;;;;9.68;72.83;100601.86;1646192;85;26637;-72
2022/05/23 04:37:06;;;;;;;13.53;6.90;;;;;;;9.76;72.85;100612.25;1646956;85;27496;-72
2022/05/23 04:39:32;;;;;;;16.57;7.22;;;;;;;9.82;72.89;100607.12;1646440;85;98837;-72
2022/05/23 04:41:57;;;;;;;12.60;7.10;;;;;;;9.86;72.91;100615.43;1650610;85;26650;-72
2022/05/23 04:44:24;;;;;;;13.35;7.30;;;;;;;9.90;72.85;100620.59;1646695;85;98819;-72
2022/05/23 04:49:42;;;;;;;12.03;6.58;;;;;;;9.99;72.86;100626.05;1650864;85;27895;-71
2022/05/23 04:52:10;;;;;;;14.53;6.53;;;;;;;10.03;72.84;100630.34;1650004;85;98768;-71
2022/05/23 04:54:38;;;;;;;18.40;7.80;;;;;;;10.07;72.82;100633.29;1648500;85;25760;-71
2022/05/23 04:57:06;;;;;;;11.88;7.65;;;;;;;10.15;72.87;100641.01;1589643;88;99131;-71
2022/05/23 04:59:34;;;;;;;10.72;6.83;;;;;;;10.20;72.78;100631.88;1617870;87;26690;-71
2022/05/23 05:02:02;;;;;;;14.75;7.35;;;;;;;10.26;72.75;100636.98;1647519;85;27735;-73
2022/05/23 05:04:33;;;;;;;14.20;6.25;;;;;;;10.29;72.69;100634.64;1617727;87;98794;-71
2022/05/23 05:07:04;;;;;;;11.45;5.90;;;;;;;10.34;72.67;100631.30;1640547;85;25738;-71
2022/05/23 05:09:30;;;;;;;10.90;5.78;;;;;;;10.38;72.66;100640.48;1644246;85;98976;-73
2022/05/23 05:11:59;;;;;;;14.07;5.30;;;;;;;10.43;72.60;100636.23;1642969;85;25719;-73
2022/05/23 05:14:27;;;;;;;7.78;5.12;;;;;;;10.49;72.54;100641.80;1638733;85;99036;-75
2022/05/23 05:16:55;;;;;;;9.90;5.42;;;;;;;10.53;72.51;100641.59;1642414;85;26463;-72
2022/05/23 05:19:23;;;;;;;11.20;5.22;;;;;;;10.56;72.46;100640.13;1645071;85;26309;-75
2022/05/23 05:21:49;;;;;;;10.53;6.20;;;;;;;10.65;72.39;100646.42;1641980;85;99091;-75
2022/05/23 05:24:17;;;;;;;10.80;5.72;;;;;;;10.70;72.29;100650.25;1648293;85;25558;-76
2022/05/23 05:26:43;;;;;;;8.55;5.00;;;;;;;10.77;72.25;100641.47;1644965;85;99105;-75
2022/05/23 05:29:12;;;;;;;11.00;5.85;;;;;;;10.83;72.20;100642.53;1644782;85;25711;-75
2022/05/23 05:31:46;;;;;;;9.63;5.47;;;;;;;10.88;72.09;100641.86;1648581;85;26542;-74
2022/05/23 05:34:24;;;;;;;11.93;4.60;;;;;;;10.93;72.03;100650.10;1640481;85;98807;-74
2022/05/23 05:36:55;;;;;;;8.15;4.40;;;;;;;10.97;71.94;100645.47;1646073;85;25770;-74
2022/05/23 05:39:26;;;;;;;13.50;5.10;;;;;;;11.05;71.86;100656.25;1643390;85;99092;-74
2022/05/23 05:42:11;;;;;;;8.95;3.92;;;;;;;11.13;71.66;100649.20;1645982;85;27202;-74
2022/05/23 05:44:42;;;;;;;10.70;4.60;;;;;;;11.19;71.50;100645.37;1644017;85;98882;-73
2022/05/23 05:47:12;;;;;;;11.35;4.30;;;;;;;11.24;71.37;100649.58;1643798;85;27812;-73
2022/05/23 05:49:43;;;;;;;10.03;4.28;;;;;;;11.29;71.21;100647.56;1644535;85;26120;-75
2022/05/23 05:52:13;;;;;;;8.50;4.30;;;;;;;11.34;71.05;100646.87;1645553;85;98912;-75
2022/05/23 05:54:42;;;;;;;10.72;4.45;;;;;;;11.41;70.94;100641.22;1643113;85;26406;-73
2022/05/23 05:57:12;;;;;;;9.43;4.80;;;;;;;11.48;70.87;100644.89;1643118;85;98841;-75
2022/05/23 05:59:44;;;;;;;11.90;5.10;;;;;;;11.53;70.69;100651.38;1642304;85;25832;-73
2022/05/23 06:02:09;;;;;;;7.78;4.60;;;;;;;11.61;70.57;100647.86;1637268;86;25782;-73
2022/05/23 06:04:36;;;;;;;8.50;4.42;;;;;;;11.67;70.46;100655.62;1608976;87;98990;-72
2022/05/23 06:12:35;;;;;;;11.78;4.83;;;;;;;11.88;70.10;100643.02;1638273;86;25973;-74
2022/05/23 06:15:07;;;;;;;11.03;4.53;;;;;;;11.94;69.98;100652.98;1636486;86;99130;-75
2022/05/23 06:17:42;;;;;;;9.03;5.20;;;;;;;12.02;69.87;100648.11;1637751;86;27449;-75
2022/05/23 06:20:17;;;;;;;5.62;3.90;;;;;;;12.11;69.76;100649.95;1640084;86;26557;-75
2022/05/23 06:22:45;;;;;;;5.70;3.65;;;;;;;12.17;69.64;100646.95;1630123;86;98475;-74
2022/05/23 06:25:17;;;;;;;8.40;4.00;;;;;;;12.24;69.51;100645.70;1637066;86;25852;-74
2022/05/23 06:27:40;;;;;;;10.40;5.67;;;;;;;12.32;69.41;100642.16;1633002;86;98724;-76
2022/05/23 06:30:12;;;;;;;20.50;5.10;;;;;;;12.41;69.27;100639.47;1636585;86;28288;-75
2022/05/23 06:32:38;;;;;;;12.33;4.62;;;;;;;12.50;69.12;100641.69;1633619;86;99324;-75
2022/05/23 06:35:07;;;;;;;7.10;4.12;;;;;;;12.59;68.96;100645.25;1636547;86;25785;-75
2022/05/23 06:37:40;;;;;;;9.93;4.28;;;;;;;12.67;68.84;100637.66;1634539;86;26465;-75
2022/05/23 06:40:12;;;;;;;6.97;4.40;;;;;;;12.73;68.68;100637.34;1609996;86;98763;-75
2022/05/23 06:42:37;;;;;;;;;;;;;;;12.83;68.56;100633.69;1637139;86;28096;-74
2022/05/23 06:45:07;;;;;;;12.23;3.33;;;;;;;12.92;68.33;100634.08;1635198;86;84382;-73
2022/05/23 06:48:15;;;;;;;9.25;4.22;;;;;;;13.00;68.33;100637.70;1636007;86;26477;-73
2022/05/23 06:50:47;;;;;;;9.75;3.92;;;;;;;13.07;68.24;100632.83;1632875;86;98909;-73
2022/05/23 06:53:15;;;;;;;7.20;3.47;;;;;;;13.16;68.06;100630.55;1634231;86;25859;-74
2022/05/23 06:55:43;;;;;;;6.53;4.30;;;;;;;13.23;67.94;100621.66;1633964;86;29516;-74
2022/05/23 06:58:10;;;;;;;8.93;3.92;;;;;;;13.29;67.79;100619.50;1634730;86;98617;-74
2022/05/23 07:00:38;;;;;;;10.55;4.28;;;;;;;13.36;67.70;100616.47;1641589;85;25699;-74
2022/05/23 07:03:07;;;;;;;10.43;4.05;;;;;;;13.44;67.54;100618.27;1646848;85;99094;-73
2022/05/23 07:14:00;;;;;;;8.93;3.98;;;;;;;13.67;66.88;100592.26;1644721;85;25762;-75
2022/05/23 07:16:28;;;;;;;;;;;;;;;13.74;66.78;100593.64;1648492;85;98739;-74
2022/05/23 07:18:57;;;;;;;7.65;3.55;;;;;;;13.77;66.42;100585.39;1647090;85;26637;-74
2022/05/23 07:21:26;;;;;;;9.00;4.03;;;;;;;13.81;66.46;100578.86;1641759;87;98927;-74
2022/05/23 07:23:54;;;;;;;16.17;4.72;;;;;;;13.85;66.23;100576.86;1642877;85;25882;-74
2022/05/23 07:26:21;;;;;;;8.20;4.97;;;;;;;13.91;66.10;100568.42;1640472;85;25713;-74
2022/05/23 07:28:50;;;;;;;8.30;5.08;;;;;;;13.97;65.93;100571.63;1643983;85;98576;-73
2022/05/23 07:31:19;;;;;;;15.98;5.17;;;;;;;14.04;65.81;100569.92;1640270;85;26512;-73
2022/05/23 07:33:45;;;;;;;7.00;4.35;;;;;;;14.09;65.61;100564.65;1643940;85;99041;-73
2022/05/23 07:36:13;;;;;;;10.05;5.35;;;;;;;14.14;65.49;100573.33;1649418;85;25755;-73
2022/05/23 07:38:40;;;;;;;7.22;4.75;;;;;;;14.21;65.41;100572.02;1643693;85;98996;-72
2022/05/23 07:41:09;;;;;;;9.28;5.20;;;;;;;14.27;65.19;100572.13;1644475;85;25730;-73
2022/05/23 07:43:39;;;;;;;9.78;5.25;;;;;;;14.30;65.00;100559.81;1647701;85;26425;-74
2022/05/23 07:46:12;;;;;;;12.55;5.45;;;;;;;14.37;64.88;100571.09;1643564;85;98836;-74
2022/05/23 07:48:42;;;;;;;11.60;4.35;;;;;;;14.42;64.69;100569.89;1647032;85;27144;-74
2022/05/23 07:51:13;;;;;;;9.85;5.03;;;;;;;14.45;64.51;100561.61;1641398;85;99130;-73
2022/05/23 08:01:57;;;;;;;6.75;4.97;;;;;;;14.59;63.86;100551.33;1650059;85;25889;-74
2022/05/23 08:04:24;;;;;;;15.75;4.87;;;;;;;14.61;63.65;100554.32;1588899;88;98915;-73
2022/05/23 08:06:52;;;;;;;7.17;4.58;;;;;;;14.65;63.59;100555.00;1620601;87;25840;-73
2022/05/23 08:09:19;;;;;;;14.50;4.58;;;;;;;14.75;63.45;100552.13;1649266;85;98980;-73
2022/05/23 08:11:49;;;;;;;11.30;5.08;;;;;;;14.83;63.25;100542.20;1647855;85;27479;-72
2022/05/23 08:14:16;;;;;;;11.33;5.08;;;;;;;14.83;62.99;100535.45;1648597;85;25772;-74
2022/05/23 08:16:42;;;;;;;9.33;5.05;;;;;;;14.87;62.92;100539.70;1649435;85;98903;-73
2022/05/23 08:19:10;;;;;;;6.50;4.72;;;;;;;14.93;62.76;100533.91;1646411;85;26499;-73
2022/05/23 08:21:48;;;;;;;12.68;4.78;;;;;;;14.99;62.58;100532.17;1645374;85;98123;-73
2022/05/23 08:24:15;;;;;;;6.83;4.87;;;;;;;15.06;62.41;100536.22;1646023;85;27294;-74
2022/05/23 08:26:43;;;;;;;7.30;4.37;;;;;;;15.10;62.27;100524.27;1649676;85;26498;-75
2022/05/23 08:29:12;;;;;;;7.80;4.22;;;;;;;15.16;62.07;100525.70;1645553;85;98646;-76
2022/05/23 08:31:40;;;;;;;12.07;4.78;;;;;;;15.22;61.93;100532.92;1645099;86;25881;-75
2022/05/23 08:34:08;;;;;;;7.05;4.70;;;;;;;15.28;61.76;100530.31;1645348;85;98894;-71
2022/05/23 08:36:36;;;;;;;13.28;4.17;;;;;;;15.33;61.61;100523.27;1619529;87;27467;-72
2022/05/23 08:39:04;;;;;;;7.10;3.85;;;;;;;15.42;61.48;100526.72;1615530;87;99572;-74
2022/05/23 08:41:39;;;;;;;9.00;4.95;;;;;;;15.49;61.26;100519.46;1616880;87;25854;-74
2022/05/23 08:44:36;;;;;;;10.23;5.17;;;;;;;15.57;61.13;100520.34;1621475;85;26173;-74
2022/05/23 08:47:10;;;;;;;6.92;3.90;;;;;;;15.63;60.95;100513.15;1646149;85;98943;-74
2022/05/23 08:50:09;;;;;;;7.78;3.90;;;;;;;15.72;60.75;100515.72;1648527;85;27401;-73
2022/05/23 08:53:01;;;;;;;7.22;3.50;;;;;;;15.78;60.63;100518.88;1642895;85;99153;-73
2022/05/23 08:55:41;;;;;;;10.35;3.55;;;;;;;15.88;60.41;100512.38;1652554;85;25911;-72
2022/05/23 08:58:22;;;;;;;6.00;3.52;;;;;;;15.93;60.17;100516.13;1647814;85;99000;-72
2022/05/23 09:01:12;;;;;;;6.90;4.20;;;;;;;16.02;60.10;100502.84;1639809;85;25835;-72
2022/05/23 09:04:16;;;;;;;14.50;4.22;;;;;;;16.09;59.76;100499.23;1632459;86;98836;-72
2022/05/23 09:06:50;;;;;;;8.95;4.55;;;;;;;16.10;59.58;100495.56;1644240;85;26172;-72
2022/05/23 09:09:22;;;;;;;5.10;3.45;;;;;;;16.14;59.33;100495.25;1614016;87;99081;-73
2022/05/23 09:11:54;;;;;;;5.37;3.45;;;;;;;16.19;59.18;100490.39;1610949;86;25772;-73
2022/05/23 09:14:23;;;;;;;5.42;3.62;;;;;;;16.29;59.13;100486.56;1612491;87;26479;-73
2022/05/23 09:16:57;;;;;;;13.38;3.95;;;;;;;16.41;59.01;100480.78;1634776;86;98800;-73
2022/05/23 09:19:43;;;;;;;10.63;3.37;;;;;;;16.40;58.66;100485.33;1633271;86;25924;-73
2022/05/23 09:22:17;;;;;;;6.10;3.95;;;;;;;16.39;58.49;100478.19;1633685;86;98958;-72
2022/05/23 09:24:59;;;;;;;8.28;3.70;;;;;;;16.44;58.24;100481.44;1633407;86;26255;-72
2022/05/23 09:28:04;;;;;;;8.18;3.92;;;;;;;16.51;58.08;100485.92;1634266;86;99282;-72
2022/05/23 09:30:32;;;;;;;7.10;2.98;;;;;;;16.54;57.89;100475.75;1635141;86;28289;-73
2022/05/23 09:33:03;;;;;;;8.53;3.98;;;;;;;16.59;57.82;100479.97;1633020;86;99103;-73
2022/05/23 09:35:47;;;;;;;5.40;2.67;;;;;;;16.69;57.75;100481.08;1633356;86;25827;-72
2022/05/23 09:38:25;;;;;;;5.45;2.37;;;;;;;16.79;57.54;100471.33;1636879;86;25724;-74
2022/05/23 09:40:53;;;;;;;3.52;2.25;;;;;;;16.92;57.40;100464.05;1630955;86;98665;-75
2022/05/23 09:49:23;;;;;;;7.97;3.47;;;;;;;17.11;56.87;100445.98;1633585;86;27005;-73
2022/05/23 09:51:57;;;;;;;4.35;3.02;;;;;;;17.19;56.71;100443.57;1611403;87;98763;-73
2022/05/23 09:54:38;;;;;;;5.05;3.25;;;;;;;17.27;56.36;100443.00;1635467;86;25849;-73
2022/05/23 09:57:24;;;;;;;5.17;2.90;;;;;;;17.25;56.12;100445.83;1628484;86;98855;-72
2022/05/23 10:00:04;;;;;;;3.72;2.65;;;;;;;17.26;55.93;100442.62;1613945;86;25727;-73
2022/05/23 10:02:38;;;;;;;5.67;2.33;;;;;;;17.35;55.77;100439.23;1633990;86;25833;-73
2022/05/23 10:05:28;;;;;;;6.28;2.67;;;;;;;17.42;55.53;100435.08;1633929;86;98793;-73
2022/05/23 10:08:02;;;;;;;5.20;3.30;;;;;;;17.46;55.33;100436.58;1639344;86;26271;-74
2022/05/23 10:10:37;;;;;;;7.00;3.47;;;;;;;17.47;55.07;100431.05;1634244;86;98711;-73
2022/05/23 10:13:25;;;;;;;6.30;3.33;;;;;;;17.49;55.02;100429.09;1636356;86;25847;-74
2022/05/23 10:16:14;;;;;;;3.87;2.37;;;;;;;17.65;55.00;100423.86;1632796;86;98819;-74
2022/05/23 10:18:52;;;;;;;;;;;;;;;17.78;54.78;100423.33;1637144;86;26420;-74
2022/05/23 10:21:34;;;;;;;3.92;2.65;;;;;;;17.84;54.33;100423.72;1634917;86;85294;-73
2022/05/23 10:24:20;;;;;;;5.47;3.35;;;;;;;17.86;54.39;100421.38;1635008;86;27452;-74
2022/05/23 10:26:59;;;;;;;11.63;3.75;;;;;;;17.87;54.08;100423.11;1636359;86;26618;-73
2022/05/23 10:30:00;;;;;;;5.42;2.98;;;;;;;17.94;54.08;100427.08;1630813;86;98745;-76
2022/05/23 10:32:48;;;;;;;6.67;3.15;;;;;;;18.12;53.94;100428.36;1635888;85;26727;-73
2022/05/23 10:35:37;;;;;;;9.75;3.50;;;;;;;18.27;53.78;100427.13;1634393;86;98793;-73
2022/05/23 10:44:06;;;;;;;4.47;2.05;;;;;;;18.84;52.99;100413.98;1631998;86;25916;-74
2022/05/23 10:46:36;;;;;;;5.12;2.45;;;;;;;18.93;52.99;100410.52;1635785;86;98814;-74
2022/05/23 10:49:26;;;;;;;6.00;2.45;;;;;;;19.08;52.83;100402.47;1635071;86;25782;-74
2022/05/23 10:52:07;;;;;;;7.47;2.45;;;;;;;19.26;52.67;100401.94;1632889;86;98670;-75
2022/05/23 10:55:01;;;;;;;5.25;2.17;;;;;;;19.27;52.30;100401.80;1639148;86;25784;-73
2022/05/23 10:58:05;;;;;;;5.20;2.65;;;;;;;19.27;51.91;100398.22;1630795;86;99146;-73
2022/05/23 11:00:45;;;;;;;5.78;3.72;;;;;;;19.23;51.66;100389.46;1638884;85;27835;-74
2022/05/23 11:03:55;;;;;;;8.90;3.17;;;;;;;19.25;51.48;100394.77;1641625;85;98979;-72
2022/05/23 11:06:51;;;;;;;6.30;2.77;;;;;;;19.29;51.44;100389.45;1644613;85;27508;-72
2022/05/23 11:09:56;;;;;;;4.83;2.40;;;;;;;19.41;51.22;100389.28;1643510;85;98918;-71
2022/05/23 11:12:45;;;;;;;3.80;2.45;;;;;;;19.54;51.16;100391.86;1643560;85;25844;-72
2022/05/23 11:15:46;;;;;;;6.05;3.17;;;;;;;19.69;50.71;100386.48;1643660;85;98921;-72
2022/05/23 11:18:45;;;;;;;8.08;2.27;;;;;;;19.85;50.18;100379.23;1646653;85;25734;-71
2022/05/23 11:21:36;;;;;;;3.72;2.12;;;;;;;19.92;50.01;100372.77;1642011;85;98827;-70
2022/05/23 11:24:26;;;;;;;4.97;2.67;;;;;;;19.89;50.04;100363.50;1646757;85;26538;-73
2022/05/23 11:33:41;;;;;;;4.50;2.72;;;;;;;20.09;50.03;100364.00;1641693;85;25765;-72
2022/05/23 11:35:10;;;;;;;5.83;2.25;;;;;;;20.18;49.26;100349.58;1642577;85;99271;-72
2022/05/23 11:37:49;;;;;;;3.95;2.47;;;;;;;20.15;48.25;100359.88;1643424;85;27225;-73
2022/05/23 11:40:30;;;;;;;6.28;2.60;;;;;;;20.14;48.44;100355.43;1641388;85;98824;-72
2022/05/23 11:43:07;;;;;;;5.10;2.72;;;;;;;20.34;48.32;100347.73;1641290;85;25856;-72
2022/05/23 11:45:57;;;;;;;3.85;2.72;;;;;;;20.44;48.14;100350.03;1643091;85;98989;-71
2022/05/23 11:48:41;;;;;;;7.03;3.08;;;;;;;20.63;48.14;100338.35;1642297;86;27581;-73
2022/05/23 11:51:36;;;;;;;5.70;2.83;;;;;;;20.74;47.96;100337.74;1617056;87;98950;-71
2022/05/23 11:54:27;;;;;;;6.35;2.72;;;;;;;20.85;47.81;100332.64;1618286;87;25808;-73
2022/05/23 11:57:10;;;;;;;3.47;2.87;;;;;;;20.94;47.52;100325.00;1644011;85;25822;-73
2022/05/23 11:59:42;;;;;;;5.20;2.62;;;;;;;20.94;47.48;100318.69;1642234;85;98407;-73
2022/05/23 12:02:14;;;;;;;4.85;2.58;;;;;;;21.11;47.29;100315.77;1603723;88;27566;-72
2022/05/23 12:04:55;;;;;;;3.05;2.70;;;;;;;21.18;46.66;100311.47;1590824;88;98762;-71
2022/05/23 12:07:44;;;;;;;7.05;2.90;;;;;;;21.12;46.39;100303.86;1621693;85;25788;-73
2022/05/23 12:10:25;;;;;;;5.10;2.67;;;;;;;21.10;46.25;100299.92;1620167;85;98647;-72
2022/05/23 12:13:20;;;;;;;7.03;4.25;;;;;;;21.24;45.94;100295.44;1591291;88;25758;-73
2022/05/23 12:15:52;;;;;;;2.37;2.10;;;;;;;21.24;45.87;100280.45;1591383;88;99089;-73
2022/05/23 12:18:27;;;;;;;;;;;;;;;21.34;45.63;100286.76;1592809;88;26487;-73
2022/05/23 12:21:00;;;;;;;3.00;2.47;;;;;;;21.50;45.38;100276.62;1619996;87;25869;-73
2022/05/23 12:23:39;;;;;;;5.65;2.52;;;;;;;21.58;45.49;100284.95;1621135;87;98830;-72
2022/05/23 12:26:13;;;;;;;5.25;2.70;;;;;;;21.81;45.48;100288.71;1628218;87;25787;-73
2022/05/23 12:29:00;;;;;;;4.15;2.40;;;;;;;22.07;45.31;100279.41;1619314;87;98795;-72
2022/05/23 12:31:38;;;;;;;5.65;2.65;;;;;;;22.29;45.14;100276.30;1619167;87;26007;-73
2022/05/23 12:34:12;;;;;;;4.17;2.02;;;;;;;22.30;44.89;100267.09;1619892;87;99029;-72
2022/05/23 12:36:48;;;;;;;2.95;1.90;;;;;;;22.38;44.64;100263.61;1617682;87;27825;-73
2022/05/23 12:39:55;;;;;;;3.62;1.85;;;;;;;22.50;44.45;100269.23;1619270;87;98927;-70
2022/05/23 12:42:56;;;;;;;4.17;2.70;;;;;;;22.65;44.22;100264.97;1567587;89;25982;-73
2022/05/23 12:45:30;;;;;;;4.28;2.92;;;;;;;22.79;44.00;100254.92;1565034;89;98880;-72
2022/05/23 12:48:10;;;;;;;6.17;3.10;;;;;;;22.89;43.69;100248.02;1566383;89;26247;-74
2022/05/23 12:51:05;;;;;;;4.65;2.60;;;;;;;23.08;43.66;100253.33;1591645;88;25750;-73
2022/05/23 12:53:49;;;;;;;8.95;2.37;;;;;;;23.25;43.38;100248.37;1594734;88;99238;-73